sensor_id;sensor_type;location;lat;lon;timestamp;pressure;altitude;pressure_sealevel;temperature;humidity
26807;BME280;14380;49.910;6.792;2023-12-28T00:00:59;98569.78;;;9.27;72.18
26807;BME280;14380;49.910;6.792;2023-12-28T00:03:27;98566.97;;;9.47;73.17
26807;BME280;14380;49.910;6.792;2023-12-28T00:05:55;98563.78;;;9.41;73.23
26807;BME280;14380;49.910;6.792;2023-12-28T00:08:21;98567.50;;;9.36;73.83
26807;BME280;14380;49.910;6.792;2023-12-28T00:10:48;98574.88;;;9.47;73.46
26807;BME280;14380;49.910;6.792;2023-12-28T00:13:14;98568.31;;;9.55;74.13
26807;BME280;14380;49.910;6.792;2023-12-28T00:15:41;98566.22;;;9.61;73.26
26807;BME280;14380;49.910;6.792;2023-12-28T00:18:08;98574.59;;;9.52;72.78
26807;BME280;14380;49.910;6.792;2023-12-28T00:20:36;98586.19;;;9.81;73.18
26807;BME280;14380;49.910;6.792;2023-12-28T00:23:02;98596.13;;;9.44;75.92
26807;BME280;14380;49.910;6.792;2023-12-28T00:25:30;98603.84;;;9.47;76.56
26807;BME280;14380;49.910;6.792;2023-12-28T00:27:57;98596.13;;;9.44;76.73
26807;BME280;14380;49.910;6.792;2023-12-28T00:30:24;98605.94;;;9.41;77.45
26807;BME280;14380;49.910;6.792;2023-12-28T00:32:50;98615.38;;;9.78;77.66
26807;BME280;14380;49.910;6.792;2023-12-28T00:35:17;98607.88;;;9.71;77.27
26807;BME280;14380;49.910;6.792;2023-12-28T00:37:45;98612.16;;;9.40;79.30
26807;BME280;14380;49.910;6.792;2023-12-28T00:40:12;98613.94;;;9.39;81.63
26807;BME280;14380;49.910;6.792;2023-12-28T00:42:38;98621.13;;;9.53;82.45
26807;BME280;14380;49.910;6.792;2023-12-28T00:45:06;98620.06;;;9.40;86.26
26807;BME280;14380;49.910;6.792;2023-12-28T00:47:33;98626.47;;;9.18;88.05
26807;BME280;14380;49.910;6.792;2023-12-28T00:50:00;98631.66;;;9.02;91.42
26807;BME280;14380;49.910;6.792;2023-12-28T00:52:26;98638.38;;;9.07;90.66
26807;BME280;14380;49.910;6.792;2023-12-28T00:54:54;98647.59;;;9.16;90.62
26807;BME280;14380;49.910;6.792;2023-12-28T00:57:21;98662.25;;;9.04;93.03
26807;BME280;14380;49.910;6.792;2023-12-28T00:59:47;98656.13;;;8.86;94.23
26807;BME280;14380;49.910;6.792;2023-12-28T01:02:14;98659.16;;;9.14;93.14
26807;BME280;14380;49.910;6.792;2023-12-28T01:04:40;98660.69;;;9.00;96.01
26807;BME280;14380;49.910;6.792;2023-12-28T01:07:07;98680.78;;;9.03;99.05
26807;BME280;14380;49.910;6.792;2023-12-28T01:09:33;98680.53;;;9.07;100.00
26807;BME280;14380;49.910;6.792;2023-12-28T01:12:01;98682.13;;;9.10;100.00
26807;BME280;14380;49.910;6.792;2023-12-28T01:14:28;98682.47;;;9.04;100.00
26807;BME280;14380;49.910;6.792;2023-12-28T01:16:55;98687.97;;;8.99;100.00
26807;BME280;14380;49.910;6.792;2023-12-28T01:19:21;98683.84;;;8.76;100.00
26807;BME280;14380;49.910;6.792;2023-12-28T01:21:48;98694.03;;;8.65;100.00
26807;BME280;14380;49.910;6.792;2023-12-28T01:24:15;98698.59;;;8.61;100.00
26807;BME280;14380;49.910;6.792;2023-12-28T01:26:41;98688.72;;;8.84;100.00
26807;BME280;14380;49.910;6.792;2023-12-28T01:29:10;98694.94;;;8.63;100.00
26807;BME280;14380;49.910;6.792;2023-12-28T01:31:36;98704.09;;;8.56;100.00
26807;BME280;14380;49.910;6.792;2023-12-28T01:34:04;98712.34;;;8.85;100.00
26807;BME280;14380;49.910;6.792;2023-12-28T01:36:30;98713.16;;;8.68;100.00
26807;BME280;14380;49.910;6.792;2023-12-28T01:38:57;98716.78;;;8.46;100.00
26807;BME280;14380;49.910;6.792;2023-12-28T01:41:23;98718.44;;;8.86;100.00
26807;BME280;14380;49.910;6.792;2023-12-28T01:43:50;98716.66;;;8.50;100.00
26807;BME280;14380;49.910;6.792;2023-12-28T01:46:20;98722.44;;;8.58;100.00
26807;BME280;14380;49.910;6.792;2023-12-28T01:48:49;98720.03;;;8.53;100.00
26807;BME280;14380;49.910;6.792;2023-12-28T01:51:16;98727.69;;;8.39;100.00
26807;BME280;14380;49.910;6.792;2023-12-28T01:53:43;98725.84;;;8.22;100.00
26807;BME280;14380;49.910;6.792;2023-12-28T01:56:11;98723.63;;;8.51;100.00
26807;BME280;14380;49.910;6.792;2023-12-28T01:58:41;98730.72;;;8.68;100.00
26807;BME280;14380;49.910;6.792;2023-12-28T02:01:10;98727.00;;;8.54;100.00
26807;BME280;14380;49.910;6.792;2023-12-28T02:03:38;98721.56;;;8.38;100.00
26807;BME280;14380;49.910;6.792;2023-12-28T02:06:06;98713.19;;;8.49;100.00
26807;BME280;14380;49.910;6.792;2023-12-28T02:08:33;98710.28;;;8.36;100.00
26807;BME280;14380;49.910;6.792;2023-12-28T02:11:00;98726.84;;;8.38;100.00
26807;BME280;14380;49.910;6.792;2023-12-28T02:13:27;98730.03;;;8.45;100.00
26807;BME280;14380;49.910;6.792;2023-12-28T02:15:56;98727.81;;;8.36;100.00
26807;BME280;14380;49.910;6.792;2023-12-28T02:18:30;98727.53;;;8.42;100.00
26807;BME280;14380;49.910;6.792;2023-12-28T02:21:02;98722.81;;;8.50;100.00
26807;BME280;14380;49.910;6.792;2023-12-28T02:23:29;98719.09;;;8.35;100.00
26807;BME280;14380;49.910;6.792;2023-12-28T02:25:57;98735.81;;;8.53;100.00
26807;BME280;14380;49.910;6.792;2023-12-28T02:28:23;98731.66;;;8.67;100.00
26807;BME280;14380;49.910;6.792;2023-12-28T02:30:50;98728.31;;;8.44;100.00
26807;BME280;14380;49.910;6.792;2023-12-28T02:33:21;98730.03;;;8.45;100.00
26807;BME280;14380;49.910;6.792;2023-12-28T02:35:52;98736.28;;;8.61;100.00
26807;BME280;14380;49.910;6.792;2023-12-28T02:38:23;98732.78;;;8.80;100.00
26807;BME280;14380;49.910;6.792;2023-12-28T02:40:51;98743.03;;;8.48;100.00
26807;BME280;14380;49.910;6.792;2023-12-28T02:43:19;98741.97;;;8.71;100.00
26807;BME280;14380;49.910;6.792;2023-12-28T02:45:46;98725.91;;;8.95;100.00
26807;BME280;14380;49.910;6.792;2023-12-28T02:48:13;98734.78;;;8.75;100.00
26807;BME280;14380;49.910;6.792;2023-12-28T02:50:41;98730.69;;;8.87;100.00
26807;BME280;14380;49.910;6.792;2023-12-28T02:53:08;98715.53;;;9.10;100.00
26807;BME280;14380;49.910;6.792;2023-12-28T02:55:34;98710.75;;;8.63;100.00
26807;BME280;14380;49.910;6.792;2023-12-28T02:58:01;98712.31;;;8.29;100.00
26807;BME280;14380;49.910;6.792;2023-12-28T03:00:29;98711.31;;;8.70;100.00
26807;BME280;14380;49.910;6.792;2023-12-28T03:02:56;98702.06;;;8.81;100.00
26807;BME280;14380;49.910;6.792;2023-12-28T03:05:22;98710.56;;;8.49;100.00
26807;BME280;14380;49.910;6.792;2023-12-28T03:07:49;98718.19;;;8.73;100.00
26807;BME280;14380;49.910;6.792;2023-12-28T03:10:15;98712.88;;;8.74;100.00
26807;BME280;14380;49.910;6.792;2023-12-28T03:12:42;98717.63;;;8.85;100.00
26807;BME280;14380;49.910;6.792;2023-12-28T03:15:09;98718.00;;;8.77;100.00
26807;BME280;14380;49.910;6.792;2023-12-28T03:17:37;98707.13;;;8.84;100.00
26807;BME280;14380;49.910;6.792;2023-12-28T03:20:04;98697.63;;;8.81;100.00
26807;BME280;14380;49.910;6.792;2023-12-28T03:22:31;98693.91;;;8.85;100.00
26807;BME280;14380;49.910;6.792;2023-12-28T03:24:58;98705.72;;;8.96;100.00
26807;BME280;14380;49.910;6.792;2023-12-28T03:27:24;98699.56;;;8.95;100.00
26807;BME280;14380;49.910;6.792;2023-12-28T03:29:51;98714.22;;;9.01;100.00
26807;BME280;14380;49.910;6.792;2023-12-28T03:32:17;98706.75;;;8.74;100.00
26807;BME280;14380;49.910;6.792;2023-12-28T03:34:45;98707.09;;;9.03;100.00
26807;BME280;14380;49.910;6.792;2023-12-28T03:37:12;98699.47;;;8.79;100.00
26807;BME280;14380;49.910;6.792;2023-12-28T03:39:38;98694.31;;;8.95;100.00
26807;BME280;14380;49.910;6.792;2023-12-28T03:42:05;98702.97;;;8.97;100.00
26807;BME280;14380;49.910;6.792;2023-12-28T03:44:32;98690.59;;;8.99;100.00
26807;BME280;14380;49.910;6.792;2023-12-28T03:46:58;98696.09;;;9.12;100.00
26807;BME280;14380;49.910;6.792;2023-12-28T03:49:25;98693.16;;;9.01;100.00
26807;BME280;14380;49.910;6.792;2023-12-28T03:51:53;98702.50;;;8.89;100.00
26807;BME280;14380;49.910;6.792;2023-12-28T03:54:19;98691.38;;;9.01;100.00
26807;BME280;14380;49.910;6.792;2023-12-28T03:56:46;98699.75;;;9.27;100.00
26807;BME280;14380;49.910;6.792;2023-12-28T03:59:13;98708.09;;;9.53;100.00
26807;BME280;14380;49.910;6.792;2023-12-28T04:01:41;98705.56;;;8.99;100.00
26807;BME280;14380;49.910;6.792;2023-12-28T04:04:08;98703.06;;;9.13;100.00
26807;BME280;14380;49.910;6.792;2023-12-28T04:06:35;98708.09;;;9.00;100.00
26807;BME280;14380;49.910;6.792;2023-12-28T04:09:03;98707.72;;;9.43;100.00
26807;BME280;14380;49.910;6.792;2023-12-28T04:11:29;98706.78;;;9.09;100.00
26807;BME280;14380;49.910;6.792;2023-12-28T04:13:56;98713.06;;;9.06;100.00
26807;BME280;14380;49.910;6.792;2023-12-28T04:16:23;98705.69;;;9.13;100.00
26807;BME280;14380;49.910;6.792;2023-12-28T04:18:49;98705.56;;;9.34;100.00
26807;BME280;14380;49.910;6.792;2023-12-28T04:21:16;98702.13;;;9.14;100.00
26807;BME280;14380;49.910;6.792;2023-12-28T04:23:42;98711.13;;;9.28;100.00
26807;BME280;14380;49.910;6.792;2023-12-28T04:26:10;98700.28;;;9.34;100.00
26807;BME280;14380;49.910;6.792;2023-12-28T04:28:37;98703.59;;;9.37;100.00
26807;BME280;14380;49.910;6.792;2023-12-28T04:31:04;98701.91;;;9.19;100.00
26807;BME280;14380;49.910;6.792;2023-12-28T04:33:31;98703.84;;;9.15;100.00
26807;BME280;14380;49.910;6.792;2023-12-28T04:36:00;98705.63;;;9.32;100.00
26807;BME280;14380;49.910;6.792;2023-12-28T04:38:28;98704.94;;;9.46;100.00
26807;BME280;14380;49.910;6.792;2023-12-28T04:40:55;98713.50;;;9.50;100.00
26807;BME280;14380;49.910;6.792;2023-12-28T04:43:23;98703.69;;;9.18;100.00
26807;BME280;14380;49.910;6.792;2023-12-28T04:45:50;98713.38;;;9.35;100.00
26807;BME280;14380;49.910;6.792;2023-12-28T04:48:16;98703.81;;;9.50;100.00
26807;BME280;14380;49.910;6.792;2023-12-28T04:50:46;98697.69;;;9.67;100.00
26807;BME280;14380;49.910;6.792;2023-12-28T04:53:13;98703.78;;;9.68;100.00
26807;BME280;14380;49.910;6.792;2023-12-28T04:55:39;98707.31;;;9.51;100.00
26807;BME280;14380;49.910;6.792;2023-12-28T04:58:06;98707.94;;;9.56;100.00
26807;BME280;14380;49.910;6.792;2023-12-28T05:00:34;98693.56;;;9.62;100.00
26807;BME280;14380;49.910;6.792;2023-12-28T05:03:00;98700.19;;;9.35;100.00
26807;BME280;14380;49.910;6.792;2023-12-28T05:05:27;98687.84;;;9.87;100.00
26807;BME280;14380;49.910;6.792;2023-12-28T05:07:54;98693.81;;;9.91;100.00
26807;BME280;14380;49.910;6.792;2023-12-28T05:10:20;98688.50;;;9.75;100.00
26807;BME280;14380;49.910;6.792;2023-12-28T05:12:47;98691.38;;;9.70;100.00
26807;BME280;14380;49.910;6.792;2023-12-28T05:15:13;98687.94;;;9.86;100.00
26807;BME280;14380;49.910;6.792;2023-12-28T05:17:42;98690.16;;;9.93;100.00
26807;BME280;14380;49.910;6.792;2023-12-28T05:20:09;98698.69;;;9.65;100.00
26807;BME280;14380;49.910;6.792;2023-12-28T05:22:36;98700.19;;;9.53;100.00
26807;BME280;14380;49.910;6.792;2023-12-28T05:25:03;98706.69;;;9.46;100.00
26807;BME280;14380;49.910;6.792;2023-12-28T05:27:30;98696.09;;;9.81;100.00
26807;BME280;14380;49.910;6.792;2023-12-28T05:29:56;98695.59;;;9.57;100.00
26807;BME280;14380;49.910;6.792;2023-12-28T05:32:23;98699.81;;;9.43;100.00
26807;BME280;14380;49.910;6.792;2023-12-28T05:34:51;98696.19;;;9.62;100.00
26807;BME280;14380;49.910;6.792;2023-12-28T05:37:17;98693.75;;;9.75;100.00
26807;BME280;14380;49.910;6.792;2023-12-28T05:39:45;98696.50;;;9.73;100.00
26807;BME280;14380;49.910;6.792;2023-12-28T05:42:14;98686.63;;;9.77;100.00
26807;BME280;14380;49.910;6.792;2023-12-28T05:44:40;98698.78;;;9.63;100.00
26807;BME280;14380;49.910;6.792;2023-12-28T05:47:07;98698.31;;;9.55;100.00
26807;BME280;14380;49.910;6.792;2023-12-28T05:49:33;98691.69;;;9.81;100.00
26807;BME280;14380;49.910;6.792;2023-12-28T05:52:02;98691.91;;;9.77;100.00
26807;BME280;14380;49.910;6.792;2023-12-28T05:54:29;98698.84;;;9.95;100.00
26807;BME280;14380;49.910;6.792;2023-12-28T05:56:56;98698.09;;;9.76;100.00
26807;BME280;14380;49.910;6.792;2023-12-28T05:59:22;98705.88;;;9.95;100.00
26807;BME280;14380;49.910;6.792;2023-12-28T06:01:51;98718.97;;;9.80;100.00
26807;BME280;14380;49.910;6.792;2023-12-28T06:04:18;98709.38;;;9.79;100.00
26807;BME280;14380;49.910;6.792;2023-12-28T06:06:44;98713.72;;;9.96;100.00
26807;BME280;14380;49.910;6.792;2023-12-28T06:09:12;98706.53;;;9.66;100.00
26807;BME280;14380;49.910;6.792;2023-12-28T06:11:39;98707.59;;;9.96;100.00
26807;BME280;14380;49.910;6.792;2023-12-28T06:14:06;98717.31;;;9.95;100.00
26807;BME280;14380;49.910;6.792;2023-12-28T06:16:34;98724.16;;;9.82;100.00
26807;BME280;14380;49.910;6.792;2023-12-28T06:19:00;98719.78;;;9.99;100.00
26807;BME280;14380;49.910;6.792;2023-12-28T06:21:27;98716.50;;;10.27;100.00
26807;BME280;14380;49.910;6.792;2023-12-28T06:23:55;98713.56;;;10.00;100.00
26807;BME280;14380;49.910;6.792;2023-12-28T06:26:23;98720.38;;;10.04;100.00
26807;BME280;14380;49.910;6.792;2023-12-28T06:28:50;98714.41;;;10.00;100.00
26807;BME280;14380;49.910;6.792;2023-12-28T06:31:16;98715.94;;;10.04;100.00
26807;BME280;14380;49.910;6.792;2023-12-28T06:33:43;98724.78;;;10.03;100.00
26807;BME280;14380;49.910;6.792;2023-12-28T06:36:11;98726.88;;;9.80;100.00
26807;BME280;14380;49.910;6.792;2023-12-28T06:38:38;98736.22;;;10.04;100.00
26807;BME280;14380;49.910;6.792;2023-12-28T06:41:10;98728.59;;;10.15;100.00
26807;BME280;14380;49.910;6.792;2023-12-28T06:43:38;98721.19;;;10.22;100.00
26807;BME280;14380;49.910;6.792;2023-12-28T06:46:05;98728.94;;;9.91;100.00
26807;BME280;14380;49.910;6.792;2023-12-28T06:48:31;98723.25;;;9.99;100.00
26807;BME280;14380;49.910;6.792;2023-12-28T06:50:58;98733.41;;;10.07;100.00
26807;BME280;14380;49.910;6.792;2023-12-28T06:53:25;98741.25;;;10.24;100.00
26807;BME280;14380;49.910;6.792;2023-12-28T06:55:51;98742.16;;;10.07;100.00
26807;BME280;14380;49.910;6.792;2023-12-28T06:58:18;98748.94;;;10.29;100.00
26807;BME280;14380;49.910;6.792;2023-12-28T07:00:46;98756.59;;;10.00;100.00
26807;BME280;14380;49.910;6.792;2023-12-28T07:03:12;98762.91;;;9.97;100.00
26807;BME280;14380;49.910;6.792;2023-12-28T07:05:39;98756.38;;;10.05;100.00
26807;BME280;14380;49.910;6.792;2023-12-28T07:08:06;98753.50;;;10.43;100.00
26807;BME280;14380;49.910;6.792;2023-12-28T07:10:32;98748.63;;;10.02;100.00
26807;BME280;14380;49.910;6.792;2023-12-28T07:12:59;98753.59;;;10.24;100.00
26807;BME280;14380;49.910;6.792;2023-12-28T07:15:25;98751.75;;;10.26;100.00
26807;BME280;14380;49.910;6.792;2023-12-28T07:17:54;98747.28;;;10.10;100.00
26807;BME280;14380;49.910;6.792;2023-12-28T07:20:21;98750.34;;;10.03;100.00
26807;BME280;14380;49.910;6.792;2023-12-28T07:22:47;98764.09;;;9.92;100.00
26807;BME280;14380;49.910;6.792;2023-12-28T07:25:14;98758.69;;;10.11;100.00
26807;BME280;14380;49.910;6.792;2023-12-28T07:27:40;98761.03;;;10.33;100.00
26807;BME280;14380;49.910;6.792;2023-12-28T07:30:08;98753.25;;;10.14;100.00
26807;BME280;14380;49.910;6.792;2023-12-28T07:32:34;98748.09;;;9.95;100.00
26807;BME280;14380;49.910;6.792;2023-12-28T07:35:03;98757.66;;;10.47;100.00
26807;BME280;14380;49.910;6.792;2023-12-28T07:37:29;98765.03;;;10.40;100.00
26807;BME280;14380;49.910;6.792;2023-12-28T07:39:56;98754.66;;;10.37;100.00
26807;BME280;14380;49.910;6.792;2023-12-28T07:42:23;98747.63;;;10.20;100.00
26807;BME280;14380;49.910;6.792;2023-12-28T07:44:50;98740.03;;;10.48;100.00
26807;BME280;14380;49.910;6.792;2023-12-28T07:47:16;98748.00;;;10.30;100.00
26807;BME280;14380;49.910;6.792;2023-12-28T07:49:43;98760.16;;;10.33;100.00
26807;BME280;14380;49.910;6.792;2023-12-28T07:52:11;98774.28;;;10.32;100.00
26807;BME280;14380;49.910;6.792;2023-12-28T07:54:38;98775.59;;;10.40;100.00
26807;BME280;14380;49.910;6.792;2023-12-28T07:57:04;98782.72;;;10.38;100.00
26807;BME280;14380;49.910;6.792;2023-12-28T07:59:31;98786.78;;;10.46;100.00
26807;BME280;14380;49.910;6.792;2023-12-28T08:01:58;98783.69;;;10.37;100.00
26807;BME280;14380;49.910;6.792;2023-12-28T08:04:24;98779.88;;;10.43;100.00
26807;BME280;14380;49.910;6.792;2023-12-28T08:06:51;98789.50;;;10.44;100.00
26807;BME280;14380;49.910;6.792;2023-12-28T08:09:19;98787.16;;;10.71;100.00
26807;BME280;14380;49.910;6.792;2023-12-28T08:11:45;98787.53;;;10.48;100.00
26807;BME280;14380;49.910;6.792;2023-12-28T08:14:12;98797.00;;;10.68;100.00
26807;BME280;14380;49.910;6.792;2023-12-28T08:16:38;98794.53;;;10.49;100.00
26807;BME280;14380;49.910;6.792;2023-12-28T08:19:05;98800.75;;;10.64;100.00
26807;BME280;14380;49.910;6.792;2023-12-28T08:21:32;98799.34;;;10.40;100.00
26807;BME280;14380;49.910;6.792;2023-12-28T08:23:59;98807.16;;;10.60;100.00
26807;BME280;14380;49.910;6.792;2023-12-28T08:26:28;98802.72;;;10.44;100.00
26807;BME280;14380;49.910;6.792;2023-12-28T08:28:55;98808.50;;;10.67;100.00
26807;BME280;14380;49.910;6.792;2023-12-28T08:31:22;98810.84;;;10.39;100.00
26807;BME280;14380;49.910;6.792;2023-12-28T08:33:48;98806.56;;;10.54;100.00
26807;BME280;14380;49.910;6.792;2023-12-28T08:36:15;98803.38;;;10.64;100.00
26807;BME280;14380;49.910;6.792;2023-12-28T08:38:42;98802.44;;;10.49;100.00
26807;BME280;14380;49.910;6.792;2023-12-28T08:41:17;98804.84;;;10.69;100.00
26807;BME280;14380;49.910;6.792;2023-12-28T08:43:45;98802.88;;;10.57;100.00
26807;BME280;14380;49.910;6.792;2023-12-28T08:46:12;98805.53;;;10.89;100.00
26807;BME280;14380;49.910;6.792;2023-12-28T08:48:39;98802.00;;;10.40;100.00
26807;BME280;14380;49.910;6.792;2023-12-28T08:51:06;98807.28;;;10.40;100.00
26807;BME280;14380;49.910;6.792;2023-12-28T08:53:33;98806.47;;;10.56;100.00
26807;BME280;14380;49.910;6.792;2023-12-28T08:55:59;98811.56;;;10.25;100.00
26807;BME280;14380;49.910;6.792;2023-12-28T08:58:26;98813.09;;;10.47;100.00
26807;BME280;14380;49.910;6.792;2023-12-28T09:00:54;98806.44;;;10.40;100.00
26807;BME280;14380;49.910;6.792;2023-12-28T09:03:20;98809.97;;;10.56;100.00
26807;BME280;14380;49.910;6.792;2023-12-28T09:05:47;98808.50;;;10.51;100.00
26807;BME280;14380;49.910;6.792;2023-12-28T09:08:14;98809.13;;;10.38;100.00
26807;BME280;14380;49.910;6.792;2023-12-28T09:10:40;98813.56;;;10.71;100.00
26807;BME280;14380;49.910;6.792;2023-12-28T09:13:07;98816.84;;;10.43;100.00
26807;BME280;14380;49.910;6.792;2023-12-28T09:15:42;98823.22;;;10.55;100.00
26807;BME280;14380;49.910;6.792;2023-12-28T09:18:10;98816.44;;;10.33;100.00
26807;BME280;14380;49.910;6.792;2023-12-28T09:20:37;98815.91;;;10.44;100.00
26807;BME280;14380;49.910;6.792;2023-12-28T09:23:04;98821.09;;;10.62;100.00
26807;BME280;14380;49.910;6.792;2023-12-28T09:25:29;98830.81;;;10.45;100.00
26807;BME280;14380;49.910;6.792;2023-12-28T09:27:56;98822.31;;;10.56;100.00
26807;BME280;14380;49.910;6.792;2023-12-28T09:30:22;98820.69;;;10.36;100.00
26807;BME280;14380;49.910;6.792;2023-12-28T09:32:49;98821.09;;;10.62;100.00
26807;BME280;14380;49.910;6.792;2023-12-28T09:35:17;98815.16;;;10.58;100.00
26807;BME280;14380;49.910;6.792;2023-12-28T09:37:43;98821.19;;;10.60;100.00
26807;BME280;14380;49.910;6.792;2023-12-28T09:40:10;98816.44;;;10.83;100.00
26807;BME280;14380;49.910;6.792;2023-12-28T09:42:45;98821.31;;;10.75;100.00
26807;BME280;14380;49.910;6.792;2023-12-28T09:45:15;98821.81;;;10.97;100.00
26807;BME280;14380;49.910;6.792;2023-12-28T09:47:42;98834.75;;;10.86;100.00
26807;BME280;14380;49.910;6.792;2023-12-28T09:50:09;98832.38;;;10.81;100.00
26807;BME280;14380;49.910;6.792;2023-12-28T09:52:38;98806.06;;;10.80;100.00
26807;BME280;14380;49.910;6.792;2023-12-28T09:55:05;98824.56;;;11.26;100.00
26807;BME280;14380;49.910;6.792;2023-12-28T09:57:33;98818.81;;;11.04;100.00
26807;BME280;14380;49.910;6.792;2023-12-28T10:00:00;98829.53;;;11.16;100.00
26807;BME280;14380;49.910;6.792;2023-12-28T10:02:28;98839.53;;;11.58;100.00
26807;BME280;14380;49.910;6.792;2023-12-28T10:04:55;98823.16;;;11.21;100.00
26807;BME280;14380;49.910;6.792;2023-12-28T10:07:21;98834.41;;;11.55;100.00
26807;BME280;14380;49.910;6.792;2023-12-28T10:09:50;98840.16;;;11.47;100.00
26807;BME280;14380;49.910;6.792;2023-12-28T10:12:16;98838.84;;;11.24;100.00
26807;BME280;14380;49.910;6.792;2023-12-28T10:14:43;98838.34;;;11.64;100.00
26807;BME280;14380;49.910;6.792;2023-12-28T10:17:10;98837.06;;;11.55;100.00
26807;BME280;14380;49.910;6.792;2023-12-28T10:19:36;98843.06;;;11.42;100.00
26807;BME280;14380;49.910;6.792;2023-12-28T10:22:03;98833.16;;;11.46;100.00
26807;BME280;14380;49.910;6.792;2023-12-28T10:24:31;98836.13;;;11.25;100.00
26807;BME280;14380;49.910;6.792;2023-12-28T10:26:59;98832.19;;;11.63;100.00
26807;BME280;14380;49.910;6.792;2023-12-28T10:29:25;98831.38;;;11.77;100.00
26807;BME280;14380;49.910;6.792;2023-12-28T10:31:52;98832.00;;;11.66;100.00
26807;BME280;14380;49.910;6.792;2023-12-28T10:34:18;98824.72;;;11.55;100.00
26807;BME280;14380;49.910;6.792;2023-12-28T10:36:45;98830.47;;;11.62;100.00
26807;BME280;14380;49.910;6.792;2023-12-28T10:39:16;98824.47;;;11.44;100.00
26807;BME280;14380;49.910;6.792;2023-12-28T10:41:49;98814.94;;;11.86;100.00
26807;BME280;14380;49.910;6.792;2023-12-28T10:44:20;98824.88;;;11.52;100.00
26807;BME280;14380;49.910;6.792;2023-12-28T10:46:47;98817.25;;;11.62;100.00
26807;BME280;14380;49.910;6.792;2023-12-28T10:49:20;98813.22;;;11.71;100.00
26807;BME280;14380;49.910;6.792;2023-12-28T10:51:51;98810.38;;;11.74;100.00
26807;BME280;14380;49.910;6.792;2023-12-28T10:54:29;98806.97;;;12.02;100.00
26807;BME280;14380;49.910;6.792;2023-12-28T10:57:01;98796.97;;;11.63;100.00
26807;BME280;14380;49.910;6.792;2023-12-28T10:59:41;98806.19;;;11.86;100.00
26807;BME280;14380;49.910;6.792;2023-12-28T11:02:14;98800.00;;;12.16;100.00
26807;BME280;14380;49.910;6.792;2023-12-28T11:04:45;98809.44;;;11.60;100.00
26807;BME280;14380;49.910;6.792;2023-12-28T11:07:15;98797.47;;;11.98;100.00
26807;BME280;14380;49.910;6.792;2023-12-28T11:09:42;98789.31;;;12.03;100.00
26807;BME280;14380;49.910;6.792;2023-12-28T11:12:08;98791.41;;;12.12;100.00
26807;BME280;14380;49.910;6.792;2023-12-28T11:14:39;98788.38;;;11.73;100.00
26807;BME280;14380;49.910;6.792;2023-12-28T11:17:06;98785.69;;;11.59;100.00
26807;BME280;14380;49.910;6.792;2023-12-28T11:19:34;98776.59;;;11.94;100.00
26807;BME280;14380;49.910;6.792;2023-12-28T11:22:02;98790.81;;;11.62;100.00
26807;BME280;14380;49.910;6.792;2023-12-28T11:24:30;98784.09;;;12.01;100.00
26807;BME280;14380;49.910;6.792;2023-12-28T11:26:58;98786.47;;;12.06;100.00
26807;BME280;14380;49.910;6.792;2023-12-28T11:29:24;98764.41;;;11.91;100.00
26807;BME280;14380;49.910;6.792;2023-12-28T11:31:54;98767.72;;;11.95;100.00
26807;BME280;14380;49.910;6.792;2023-12-28T11:34:24;98755.38;;;12.10;100.00
26807;BME280;14380;49.910;6.792;2023-12-28T11:36:53;98755.31;;;11.95;100.00
26807;BME280;14380;49.910;6.792;2023-12-28T11:39:29;98759.97;;;11.92;100.00
26807;BME280;14380;49.910;6.792;2023-12-28T11:42:01;98764.00;;;12.13;100.00
26807;BME280;14380;49.910;6.792;2023-12-28T11:44:29;98747.63;;;12.07;100.00
26807;BME280;14380;49.910;6.792;2023-12-28T11:46:57;98749.91;;;12.27;97.36
26807;BME280;14380;49.910;6.792;2023-12-28T11:49:27;98751.75;;;11.82;100.00
26807;BME280;14380;49.910;6.792;2023-12-28T11:51:56;98750.47;;;12.18;98.90
26807;BME280;14380;49.910;6.792;2023-12-28T11:54:24;98749.31;;;12.22;99.12
26807;BME280;14380;49.910;6.792;2023-12-28T11:56:51;98744.56;;;12.42;98.30
26807;BME280;14380;49.910;6.792;2023-12-28T11:59:17;98752.06;;;12.06;100.00
26807;BME280;14380;49.910;6.792;2023-12-28T12:01:49;98741.19;;;12.25;99.77
26807;BME280;14380;49.910;6.792;2023-12-28T12:04:17;98745.94;;;12.62;98.32
26807;BME280;14380;49.910;6.792;2023-12-28T12:06:44;98749.00;;;12.56;96.70
26807;BME280;14380;49.910;6.792;2023-12-28T12:09:11;98740.84;;;12.86;96.94
26807;BME280;14380;49.910;6.792;2023-12-28T12:11:38;98737.47;;;12.42;98.92
26807;BME280;14380;49.910;6.792;2023-12-28T12:14:08;98743.22;;;12.63;97.28
26807;BME280;14380;49.910;6.792;2023-12-28T12:16:35;98743.34;;;12.33;99.42
26807;BME280;14380;49.910;6.792;2023-12-28T12:19:01;98739.88;;;12.32;98.14
26807;BME280;14380;49.910;6.792;2023-12-28T12:21:30;98739.00;;;12.32;99.91
26807;BME280;14380;49.910;6.792;2023-12-28T12:23:56;98730.56;;;12.40;100.00
26807;BME280;14380;49.910;6.792;2023-12-28T12:26:23;98735.41;;;12.47;99.71
26807;BME280;14380;49.910;6.792;2023-12-28T12:28:51;98734.69;;;12.73;97.89
26807;BME280;14380;49.910;6.792;2023-12-28T12:31:18;98738.19;;;12.59;98.61
26807;BME280;14380;49.910;6.792;2023-12-28T12:33:45;98734.56;;;12.03;100.00
26807;BME280;14380;49.910;6.792;2023-12-28T12:36:12;98732.38;;;12.25;100.00
26807;BME280;14380;49.910;6.792;2023-12-28T12:38:41;98729.47;;;12.00;100.00
26807;BME280;14380;49.910;6.792;2023-12-28T12:41:09;98726.25;;;12.10;100.00
26807;BME280;14380;49.910;6.792;2023-12-28T12:43:36;98739.00;;;11.88;100.00
26807;BME280;14380;49.910;6.792;2023-12-28T12:46:03;98723.72;;;12.08;100.00
26807;BME280;14380;49.910;6.792;2023-12-28T12:48:30;98728.34;;;12.33;100.00
26807;BME280;14380;49.910;6.792;2023-12-28T12:50:57;98721.53;;;12.29;100.00
26807;BME280;14380;49.910;6.792;2023-12-28T12:53:24;98721.47;;;12.58;100.00
26807;BME280;14380;49.910;6.792;2023-12-28T12:55:55;98717.81;;;12.32;100.00
26807;BME280;14380;49.910;6.792;2023-12-28T12:58:22;98714.66;;;12.12;100.00